Nearby METAR Reports

 

KPMD - Palmdale, California, USA
Distance from station: NNE 12mi, 19km
Updated: Sun, 18-Aug-2019 8:53pm PDT
Clear
Clear
 Wind from WSW
Wind: WSW 10 mph , 17 km/h
Temperature: 79°F , 26°C
Dew Point: 39°F , 4°C
Humidity: 24%
Barometer: 29.92 inHg , 1013.2 hPa
Clouds: Clear
Visibility: 10 miles , 16 km
2019/08/19 03:53 KPMD 190353Z AUTO 25009KT 210V280 10SM CLR 26/04 A2992 RMK AO2 SLP101 T02560039
KWJF - Lancaster/Fox, California, USA
Distance from station: N 17mi, 27km
Updated: Sun, 18-Aug-2019 8:56pm PDT
Clear
Clear
 Wind from WSW
Wind: WSW 18 mph , 30 km/h
Temperature: 77°F , 25°C
Dew Point: 43°F , 6°C
Humidity: 30%
Barometer: 29.92 inHg , 1013.2 hPa
Clouds: Clear
Visibility: 10 miles , 16 km
2019/08/19 03:56 KWJF 190356Z 25016KT 10SM CLR 25/06 A2992 RMK AO2 SLP110 T02500061
 
KMWS - Mount Wilson, California, USA
Distance from station: SSE 18mi, 30km
Updated: Wed, 13-May-2015 6:45am PDT
NOT Current

 Wind from S
Wind: S 3 mph , 6 km/h, Gust: 5 mph , 7 km/h
Temperature: 43°F , 6°C
Dew Point: -0°F , -18°C
Humidity: 16%
2015/05/13 13:45 KMWS 131345Z 18003G04KT 06/M18 RMK SNOW DEPTH 1.00
KWHP - La / Whiteman, California, USA
Distance from station: SW 21mi, 34km
Updated: Sun, 18-Aug-2019 7:50pm PDT
NOT Current
Clear
Clear
 Wind from ESE
Wind: ESE 6 mph , 9 km/h
Temperature: 75°F , 24°C
Dew Point: 57°F , 14°C
Humidity: 54%
Barometer: 29.91 inHg , 1012.9 hPa
Clouds: Clear
Visibility: 10 miles , 16 km
2019/08/19 02:50 KWHP 190250Z 12005KT 10SM SKC 24/14 A2991
 
KBUR - Burbank, California, USA
Distance from station: SSW 22mi, 35km
Updated: Sun, 18-Aug-2019 8:53pm PDT
Clear
Clear
 Wind from SE
Wind: SE 7 mph , 11 km/h
Temperature: 70°F , 21°C
Dew Point: 61°F , 16°C
Humidity: 73%
Barometer: 29.88 inHg , 1011.9 hPa
Clouds: Clear
Visibility: 10 miles , 16 km
2019/08/19 03:53 KBUR 190353Z 14006KT 10SM CLR 21/16 A2988 RMK AO2 SLP107 T02060156
KVNY - Van Nuys, California, USA
Distance from station: SW 25mi, 40km
Updated: Sun, 18-Aug-2019 8:51pm PDT
Clear
Clear
 Wind from ESE
Wind: ESE 3 mph , 6 km/h
Temperature: 73°F , 23°C
Dew Point: 59°F , 15°C
Humidity: 61%
Barometer: 29.88 inHg , 1011.9 hPa
Clouds: Clear
Visibility: 10 miles , 16 km
2019/08/19 03:51 KVNY 190351Z 12003KT 10SM CLR 23/15 A2988 RMK AO2 SLP110 T02280150
 
KEDW - Edwards Afb, California, USA
Distance from station: NNE 33mi, 53km
Updated: Sun, 18-Aug-2019 8:58pm PDT
Clear
Clear
 Wind from SW
Wind: SW 17 mph , 28 km/h
Temperature: 79°F , 26°C
Dew Point: 39°F , 4°C
Humidity: 24%
Barometer: 29.88 inHg , 1011.9 hPa
Clouds: Clear
Visibility: 10 miles , 16 km
2019/08/19 03:58 KEDW 190358Z AUTO 22015KT 10SM CLR 26/04 A2988 RMK AO2 SLP094 T02570036
KSMO - Santa Monica, California, USA
Distance from station: SSW 35mi, 57km
Updated: Sun, 18-Aug-2019 8:51pm PDT
Clear
Clear
 Wind from SW
Wind: SW 6 mph , 9 km/h
Temperature: 66°F , 19°C
Dew Point: 63°F , 17°C
Humidity: 88%
Barometer: 29.88 inHg , 1011.9 hPa
Clouds: Clear
Visibility: 10 miles , 16 km
2019/08/19 03:51 KSMO 190351Z AUTO 22005KT 10SM CLR 19/17 A2988 RMK AO2 SLP118 T01890172
 
KLAX - Los Angeles, California, USA
Distance from station: SSW 39mi, 63km
Updated: Sun, 18-Aug-2019 8:53pm PDT
Clear
Clear
 Wind from W
Wind: W 12 mph , 19 km/h
Temperature: 66°F , 19°C
Dew Point: 61°F , 16°C
Humidity: 83%
Barometer: 29.89 inHg , 1012.2 hPa
Clouds: Clear
Visibility: 10 miles , 16 km
2019/08/19 03:53 KLAX 190353Z 26010KT 10SM CLR 19/16 A2989 RMK AO2 SLP117 T01940156 $
KMHV - Mojave, California, USA
Distance from station: N 41mi, 66km
Updated: Sun, 18-Aug-2019 9:20pm PDT

 
2019/08/19 04:20 KMHV 190420Z AUTO 240KT RMK A01
 
KFUL - Fullerton, California, USA
Distance from station: SSE 44mi, 70km
Updated: Sun, 18-Aug-2019 8:53pm PDT
Clear
Clear
 Wind from W
Wind: W 3 mph , 6 km/h
Temperature: 70°F , 21°C
Dew Point: 59°F , 15°C
Humidity: 69%
Barometer: 29.87 inHg , 1011.5 hPa
Clouds: Clear
Visibility: 10 miles , 16 km
2019/08/19 03:53 KFUL 190353Z 28003KT 10SM CLR 21/15 A2987 RMK AO2 SLP115 T02060150 $
KONT - Ontario, California, USA
Distance from station: SE 45mi, 72km
Updated: Sun, 18-Aug-2019 8:53pm PDT
Few Clouds
Few Clouds
 Wind from WSW
Wind: WSW 9 mph , 15 km/h
Temperature: 72°F , 22°C
Dew Point: 59°F , 15°C
Humidity: 65%
Barometer: 29.89 inHg , 1012.2 hPa
Clouds: Few Clouds
Visibility: 10 miles , 16 km
Cloud details: Few Clouds 25000 ft
2019/08/19 03:53 KONT 190353Z 24008KT 10SM FEW250 22/15 A2989 RMK AO2 SLP111 T02170150
 
KLGB - Long Beach, California, USA
Distance from station: S 46mi, 74km
Updated: Sun, 18-Aug-2019 8:53pm PDT
Clear
Clear
 Wind from WNW
Wind: WNW 7 mph , 11 km/h
Temperature: 70°F , 21°C
Dew Point: 61°F , 16°C
Humidity: 73%
Barometer: 29.88 inHg , 1011.9 hPa
Clouds: Clear
Visibility: 10 miles , 16 km
2019/08/19 03:53 KLGB 190353Z 30006KT 10SM CLR 21/16 A2988 RMK AO2 SLP118 T02060156
KVCV - Victorville, California, USA
Distance from station: E 46mi, 74km
Updated: Sun, 18-Aug-2019 7:46pm PDT
NOT Current
Clear
Clear
 Wind from S
Wind: S 10 mph , 17 km/h
Barometer: 29.91 inHg , 1012.9 hPa
Clouds: Clear
Visibility: 10 miles , 16 km
2019/08/19 02:46 KVCV 190246Z 18009KT 10SM SKC A2991
 
KTSP - Tehachapi, California, USA
Distance from station: NNW 48mi, 77km
Updated: Sun, 18-Aug-2019 9:35pm PDT
Clear
Clear
 Wind from W
Wind: W 7 mph , 11 km/h
Temperature: 68°F , 20°C
Dew Point: 41°F , 5°C
Humidity: 38%
Barometer: 30.05 inHg , 1017.6 hPa
Clouds: Clear
Visibility: 10 miles , 16 km
2019/08/19 04:35 KTSP 190435Z AUTO 28006KT 10SM CLR 20/05 A3005 RMK AO2